Terminal Aerodrome Forecast
Issued by NWS

Home | Current Version | Previous Version | Text Only | Print | Product List | Glossary On
Versions: 1 2 3 4 5 6 7 8 9 10 11 12 13 14 15 16 17 18 19 20 21 22 23 24 25 26 27 28 29 30
000
FTAK31 PAFC 240540
TAFATK
TAF
PATK 240540Z 2406/2506 05008KT P6SM -SHRA VCTS SCT050CB BKN080
      TEMPO 2406/2407 VRB15KT 3SM +TSRA BR BKN045CB
     FM240800 29005KT P6SM SCT050 BKN080
     FM241200 VRB03KT P6SM VCFG SCT002 BKN100
     FM242000 VRB05KT P6SM SCT050 BKN100=

USA.gov is the U.S. government's official web portal to all federal, state and local government web resources and services.